createdAt,value
2022-11-30T00:01:14.078Z,4141.1
2022-11-30T00:06:49.781Z,4141.9
2022-11-30T00:12:25.056Z,4143.6
2022-11-30T00:17:59.890Z,4141.6
2022-11-30T00:23:45.136Z,4139.3
2022-11-30T00:29:21.255Z,4142.6
2022-11-30T00:34:56.521Z,4136.9
2022-11-30T00:40:31.529Z,4138.4
2022-11-30T00:46:07.704Z,4137.2
2022-11-30T00:51:53.210Z,4139.4
2022-11-30T00:57:28.777Z,4137.9
2022-11-30T01:03:03.916Z,4137.1
2022-11-30T01:08:41.505Z,4137.6
2022-11-30T01:14:16.738Z,4141.6
2022-11-30T01:19:52.055Z,4137.8
2022-11-30T01:25:28.538Z,4135.6
2022-11-30T01:31:04.366Z,4136.2
2022-11-30T01:36:39.921Z,4134.6
2022-11-30T01:42:16.175Z,4133.9
2022-11-30T01:48:13.672Z,4130.4
2022-11-30T01:53:46.570Z,4131.7
2022-11-30T01:59:21.764Z,4135.9
2022-11-30T02:04:58.277Z,4136.9
2022-11-30T02:10:34.208Z,4137.6
2022-11-30T02:16:46.629Z,4135.4
2022-11-30T02:22:22.156Z,4136.4
2022-11-30T02:27:58.394Z,4135.7
2022-11-30T02:33:33.592Z,4133.6
2022-11-30T02:39:17.936Z,4130.6
2022-11-30T02:44:53.295Z,4130.7
2022-11-30T02:50:32.131Z,4131.4
2022-11-30T02:56:07.242Z,4128
2022-11-30T03:01:43.180Z,4132.4
2022-11-30T03:07:19.314Z,4127
2022-11-30T03:12:54.297Z,4128.5
2022-11-30T03:18:30.162Z,4133.9
2022-11-30T03:24:05.114Z,4129.4
2022-11-30T03:29:49.126Z,4127
2022-11-30T03:35:24.419Z,4126.9
2022-11-30T03:40:59.590Z,4126.9
2022-11-30T03:46:56.473Z,4123.5
2022-11-30T03:52:38.959Z,4131.1
2022-11-30T03:58:14.140Z,4126.2
2022-11-30T04:03:52.018Z,4127.5
2022-11-30T04:09:28.454Z,4127.5
2022-11-30T04:15:05.120Z,4126.9
2022-11-30T04:20:59.758Z,4123.8
2022-11-30T04:26:43.143Z,4124
2022-11-30T04:32:39.591Z,4124.9
2022-11-30T04:38:23.393Z,4124.7
2022-11-30T04:43:58.720Z,4124.4
2022-11-30T04:49:55.548Z,4120.7
2022-11-30T04:55:33.115Z,4126.4
2022-11-30T05:01:10.764Z,4123.9
2022-11-30T05:06:54.579Z,4124.5
2022-11-30T05:12:29.823Z,4119.7
2022-11-30T05:18:13.709Z,4119.5
2022-11-30T05:23:49.166Z,4120.3
2022-11-30T05:29:25.744Z,4121.8
2022-11-30T05:35:01.963Z,4123.3
2022-11-30T05:40:37.474Z,4119.5
2022-11-30T05:46:43.010Z,4114
2022-11-30T05:52:15.756Z,4118.5
2022-11-30T05:57:50.591Z,4115.3
2022-11-30T06:03:27.540Z,4113.5
2022-11-30T06:09:02.986Z,4117.7
2022-11-30T06:14:41.920Z,4117.1
2022-11-30T06:20:17.120Z,4119.3
2022-11-30T06:25:54.982Z,4114.5
2022-11-30T06:31:30.700Z,4116.3
2022-11-30T06:37:05.626Z,4117.5
2022-11-30T06:42:41.574Z,4113.1
2022-11-30T06:48:39.394Z,4107.9
2022-11-30T06:54:13.188Z,4114.6
2022-11-30T06:59:48.415Z,4108.9
2022-11-30T07:05:44.661Z,4113.1
2022-11-30T07:11:40.634Z,4110.6
2022-11-30T07:17:24.273Z,4111.1
2022-11-30T07:23:00.423Z,4111.5
2022-11-30T07:28:35.764Z,4107.6
2022-11-30T07:34:12.287Z,4108.4
2022-11-30T07:39:47.430Z,4106.9
2022-11-30T07:45:23.246Z,4109.3
2022-11-30T07:51:02.145Z,4109.3
2022-11-30T07:56:37.571Z,4105.9
2022-11-30T08:02:14.441Z,4105.3
2022-11-30T08:07:51.722Z,4104.6
2022-11-30T08:13:35.618Z,4099.7
2022-11-30T08:19:11.320Z,4101.7
2022-11-30T08:24:48.354Z,4100.9
2022-11-30T08:30:35.442Z,4101.4
2022-11-30T08:36:10.963Z,4103.2
2022-11-30T08:42:16.031Z,4097.4
2022-11-30T08:48:13.847Z,4097.6
2022-11-30T08:53:47.219Z,4099.2
2022-11-30T08:59:22.314Z,4099.2
2022-11-30T09:04:58.116Z,4099.6
2022-11-30T09:10:33.931Z,4098.9
2022-11-30T09:16:09.711Z,4098.4
2022-11-30T09:21:53.735Z,4099.2
2022-11-30T09:27:29.435Z,4099.4
2022-11-30T09:33:04.390Z,4096.9
2022-11-30T09:38:41.678Z,4098.9
2022-11-30T09:44:17.073Z,4099.9
2022-11-30T09:50:02.728Z,4102.1
2022-11-30T09:55:38.129Z,4101.2
2022-11-30T10:01:42.316Z,4102.1
2022-11-30T10:07:25.473Z,4104.1
2022-11-30T10:13:00.669Z,4102.7
2022-11-30T10:18:35.548Z,4103.1
2022-11-30T10:24:32.700Z,4104.9
2022-11-30T10:30:07.957Z,4101.6
2022-11-30T10:35:50.678Z,4103.1
2022-11-30T10:41:25.917Z,4101.1
2022-11-30T10:47:23.201Z,4100.1
2022-11-30T10:53:04.370Z,4102.4
2022-11-30T10:58:39.487Z,4105.3
2022-11-30T11:04:15.430Z,4102.2
2022-11-30T11:09:51.799Z,4103.2
2022-11-30T11:15:26.911Z,4102.7
2022-11-30T11:21:08.743Z,4103.7
2022-11-30T11:26:44.444Z,4103.1
2022-11-30T11:32:19.379Z,4104.9
2022-11-30T11:37:54.370Z,4101.9
2022-11-30T11:43:30.433Z,4102.6
2022-11-30T11:49:27.807Z,4099.1
2022-11-30T11:55:00.703Z,4102.2
2022-11-30T12:00:35.618Z,4104.4
2022-11-30T12:06:10.835Z,4100.7
2022-11-30T12:11:46.165Z,4100.7
2022-11-30T12:17:22.322Z,4105.3
2022-11-30T12:22:58.215Z,4102.9
2022-11-30T12:28:33.270Z,4102.7
2022-11-30T12:34:08.306Z,4102.9
2022-11-30T12:39:45.886Z,4101.9
2022-11-30T12:45:22.252Z,4102.7
2022-11-30T12:50:58.331Z,4105.6
2022-11-30T12:56:33.598Z,4105.3
2022-11-30T13:02:18.132Z,4103.9
2022-11-30T13:07:54.861Z,4101.7
2022-11-30T13:13:30.157Z,4100.6
2022-11-30T13:19:04.943Z,4100.4
2022-11-30T13:24:40.061Z,4100.6
2022-11-30T13:30:16.006Z,4099.1
2022-11-30T13:35:52.036Z,4099.9
2022-11-30T13:41:27.144Z,4100.1
2022-11-30T13:47:24.253Z,4097.4
2022-11-30T13:53:00.457Z,4098.4
2022-11-30T13:58:36.071Z,4100.4
2022-11-30T14:04:11.219Z,4098.9
2022-11-30T14:09:50.214Z,4097.6
2022-11-30T14:15:25.959Z,4099.2
2022-11-30T14:21:01.511Z,4098.4
2022-11-30T14:26:36.705Z,4097.4
2022-11-30T14:32:11.977Z,4098.1
2022-11-30T14:37:47.527Z,4098.7
2022-11-30T14:43:22.879Z,4097.6
2022-11-30T14:49:19.592Z,4095.2
2022-11-30T14:54:52.980Z,4096.7
2022-11-30T15:00:28.195Z,4094.9
2022-11-30T15:06:03.730Z,4096.2
2022-11-30T15:11:38.600Z,4094
2022-11-30T15:17:13.815Z,4094.7
2022-11-30T15:22:49.031Z,4087.7
2022-11-30T15:28:23.992Z,4089
2022-11-30T15:33:59.900Z,4090.5
2022-11-30T15:39:42.730Z,4089.2
2022-11-30T15:45:19.222Z,4089.7
2022-11-30T15:50:54.410Z,4089.5
2022-11-30T15:56:29.846Z,4087.7
2022-11-30T16:02:06.756Z,4087.3
2022-11-30T16:07:44.104Z,4090
2022-11-30T16:13:19.712Z,4087
2022-11-30T16:18:54.842Z,4085.8
2022-11-30T16:24:33.520Z,4087.2
2022-11-30T16:30:09.918Z,4086.2
2022-11-30T16:35:44.779Z,4084.7
2022-11-30T16:41:20.147Z,4081.6
2022-11-30T16:47:17.073Z,4078.1
2022-11-30T16:52:49.802Z,4080.6
2022-11-30T16:58:25.789Z,4083.5
2022-11-30T17:04:01.260Z,4082.3
2022-11-30T17:09:36.775Z,4080.3
2022-11-30T17:15:15.760Z,4080
2022-11-30T17:20:59.603Z,4080.1
2022-11-30T17:26:36.946Z,4079.3
2022-11-30T17:32:15.875Z,4082.1
2022-11-30T17:37:51.031Z,4078.6
2022-11-30T17:43:26.155Z,4081
2022-11-30T17:49:23.791Z,4078.3
2022-11-30T17:54:57.943Z,4083.1
2022-11-30T18:00:35.389Z,4079.3
2022-11-30T18:06:13.307Z,4077.6
2022-11-30T18:11:48.762Z,4079.3
2022-11-30T18:17:24.211Z,4080.3
2022-11-30T18:22:59.738Z,4078.5
2022-11-30T18:28:34.763Z,4080.1
2022-11-30T18:34:10.522Z,4079
2022-11-30T18:39:48.358Z,4078
2022-11-30T18:45:23.663Z,4079.1
2022-11-30T18:50:58.555Z,4080.3
2022-11-30T18:56:33.624Z,4079.3
2022-11-30T19:02:10.276Z,4078.8
2022-11-30T19:08:07.142Z,4082.6
2022-11-30T19:13:42.337Z,4079.3
2022-11-30T19:19:24.907Z,4078.8
2022-11-30T19:25:00.338Z,4079.3
2022-11-30T19:30:36.457Z,4079.1
2022-11-30T19:36:26.367Z,4078.8
2022-11-30T19:42:05.185Z,4078.8
2022-11-30T19:47:40.901Z,4079.5
2022-11-30T19:53:25.140Z,4081
2022-11-30T19:59:08.581Z,4076.9
2022-11-30T20:04:43.921Z,4079.3
2022-11-30T20:10:20.127Z,4075.6
2022-11-30T20:15:56.049Z,4075.4
2022-11-30T20:21:31.777Z,4076.4
2022-11-30T20:27:07.468Z,4075.4
2022-11-30T20:32:43.689Z,4075.8
2022-11-30T20:38:18.505Z,4077.6
2022-11-30T20:43:56.962Z,4072.4
2022-11-30T20:49:53.652Z,4071.1
2022-11-30T20:55:29.473Z,4074.3
2022-11-30T21:01:04.442Z,4074.3
2022-11-30T21:06:44.392Z,4073.3
2022-11-30T21:13:53.261Z,4073.1
2022-11-30T21:19:29.045Z,4071.1
2022-11-30T21:25:03.923Z,4071.8
2022-11-30T21:30:45.827Z,4070.6
2022-11-30T21:36:20.973Z,4070.6
2022-11-30T21:42:42.813Z,4071.3
2022-11-30T21:48:40.399Z,4068.4
2022-11-30T21:54:13.350Z,4069.7
2022-11-30T21:59:51.213Z,4071.8
2022-11-30T22:05:31.232Z,4073.9
2022-11-30T22:11:30.418Z,4072.1
2022-11-30T22:17:19.082Z,4070.6
2022-11-30T22:23:06.227Z,4069.9
2022-11-30T22:28:41.539Z,4069.7
2022-11-30T22:34:16.833Z,4068.7
2022-11-30T22:39:52.264Z,4069.1
2022-11-30T22:45:27.289Z,4071.1
2022-11-30T22:51:25.725Z,4068.9
2022-11-30T22:57:01.597Z,4064.7
2022-11-30T23:04:22.394Z,4067.2
2022-11-30T23:09:58.214Z,4065.2
2022-11-30T23:15:35.919Z,4067.1
2022-11-30T23:21:10.828Z,4068.1
2022-11-30T23:26:45.827Z,4064.6
2022-11-30T23:32:22.286Z,4063
2022-11-30T23:38:06.667Z,4063.7
2022-11-30T23:43:43.009Z,4066.7
2022-11-30T23:49:39.787Z,4063.2
2022-11-30T23:55:15.300Z,4064.1
